createdAt,value
2023-03-17T00:02:04.701Z,20.60
2023-03-17T00:04:33.433Z,5.40
2023-03-17T00:07:00.562Z,21.90
2023-03-17T00:09:29.875Z,8.30
2023-03-17T00:11:57.011Z,5.80
2023-03-17T00:14:24.381Z,4.90
2023-03-17T00:16:54.466Z,26.30
2023-03-17T00:19:35.894Z,3.80
2023-03-17T00:22:10.326Z,26.30
2023-03-17T00:24:37.481Z,41.60
2023-03-17T00:27:13.434Z,31.20
2023-03-17T00:32:16.772Z,33.20
2023-03-17T00:34:44.852Z,7.80
2023-03-17T00:37:13.058Z,7.60
2023-03-17T00:39:40.454Z,6.30
2023-03-17T00:42:10.113Z,36.20
2023-03-17T00:44:40.629Z,31.30
2023-03-17T00:47:11.052Z,27.30
2023-03-17T00:49:38.730Z,27.80
2023-03-17T00:52:09.616Z,25.40
2023-03-17T00:54:40.154Z,8.40
2023-03-17T00:57:09.972Z,32.20
2023-03-17T00:59:40.954Z,32.90
2023-03-17T01:02:12.133Z,30.90
2023-03-17T01:04:41.877Z,21.40
2023-03-17T01:07:14.221Z,18.70
2023-03-17T01:09:41.543Z,21.30
2023-03-17T01:12:10.869Z,18.80
2023-03-17T01:14:41.033Z,21.20
2023-03-17T01:17:17.034Z,7.00
2023-03-17T01:19:46.740Z,30.60
2023-03-17T01:22:14.372Z,34.60
2023-03-17T01:24:44.001Z,10.00
2023-03-17T01:27:12.412Z,34.60
2023-03-17T01:29:39.642Z,30.20
2023-03-17T01:32:07.128Z,4.60
2023-03-17T01:34:35.283Z,28.30
2023-03-17T01:37:02.550Z,27.70
2023-03-17T01:39:30.026Z,28.10
2023-03-17T01:42:17.621Z,7.30
2023-03-17T01:44:59.703Z,28.60
2023-03-17T01:47:31.014Z,29.40
2023-03-17T01:50:07.641Z,5.70
2023-03-17T01:53:59.657Z,25.00
2023-03-17T01:57:46.094Z,11.50
2023-03-17T02:01:32.753Z,7.70
2023-03-17T02:04:21.024Z,6.90
2023-03-17T02:09:34.288Z,28.30
2023-03-17T02:12:05.451Z,30.60
2023-03-17T02:14:32.600Z,9.20
2023-03-17T02:17:04.054Z,6.60
2023-03-17T02:19:39.139Z,4.30
2023-03-17T02:22:06.658Z,5.30
2023-03-17T02:24:39.986Z,6.90
2023-03-17T02:27:14.797Z,9.20
2023-03-17T02:29:46.393Z,10.90
2023-03-17T02:32:15.381Z,8.20
2023-03-17T02:34:42.573Z,11.30
2023-03-17T02:37:10.808Z,4.70
2023-03-17T02:39:38.419Z,19.20
2023-03-17T02:42:07.723Z,4.00
2023-03-17T02:44:36.634Z,6.80
2023-03-17T02:47:04.023Z,21.90
2023-03-17T02:49:32.443Z,26.30
2023-03-17T02:52:00.117Z,31.10
2023-03-17T02:54:29.680Z,8.70
2023-03-17T02:56:57.227Z,6.60
2023-03-17T02:59:26.404Z,29.00
2023-03-17T03:01:54.809Z,6.50
2023-03-17T03:04:22.581Z,7.00
2023-03-17T03:06:50.670Z,5.80
2023-03-17T03:09:18.087Z,7.50
2023-03-17T03:11:45.764Z,7.30
2023-03-17T03:14:14.593Z,3.90
2023-03-17T03:16:41.950Z,8.10
2023-03-17T03:19:14.532Z,6.90
2023-03-17T03:21:44.902Z,32.80
2023-03-17T03:24:12.523Z,4.60
2023-03-17T03:26:41.487Z,6.50
2023-03-17T03:29:09.578Z,21.00
2023-03-17T03:31:39.157Z,5.10
2023-03-17T03:34:07.380Z,5.60
2023-03-17T03:36:34.474Z,6.60
2023-03-17T03:39:14.214Z,20.60
2023-03-17T03:41:44.585Z,7.90
2023-03-17T03:44:19.046Z,5.30
2023-03-17T03:49:19.531Z,3.40
2023-03-17T03:51:46.641Z,4.30
2023-03-17T03:54:14.039Z,5.30
2023-03-17T03:56:45.671Z,4.30
2023-03-17T03:59:12.849Z,17.40
2023-03-17T04:01:42.706Z,4.10
2023-03-17T04:04:10.114Z,6.10
2023-03-17T04:06:37.334Z,5.10
2023-03-17T04:09:09.292Z,22.60
2023-03-17T04:11:40.141Z,6.20
2023-03-17T04:14:07.458Z,5.30
2023-03-17T04:16:34.841Z,9.30
2023-03-17T04:19:05.003Z,11.30
2023-03-17T04:21:35.928Z,8.40
2023-03-17T04:24:09.850Z,9.90
2023-03-17T04:26:41.458Z,9.20
2023-03-17T04:29:10.487Z,33.50
2023-03-17T04:31:39.710Z,3.90
2023-03-17T04:34:07.174Z,3.30
2023-03-17T04:36:36.510Z,2.40
2023-03-17T04:39:12.090Z,3.40
2023-03-17T04:41:39.521Z,5.10
2023-03-17T04:44:07.150Z,4.50
2023-03-17T04:46:38.526Z,4.40
2023-03-17T04:49:09.570Z,3.90
2023-03-17T04:54:08.422Z,3.60
2023-03-17T04:56:38.546Z,3.00
2023-03-17T04:59:13.008Z,4.30
2023-03-17T05:01:44.470Z,4.20
2023-03-17T05:04:16.716Z,17.30
2023-03-17T05:06:50.138Z,2.00
2023-03-17T05:09:18.096Z,3.50
2023-03-17T05:11:48.930Z,6.80
2023-03-17T05:14:19.775Z,6.20
2023-03-17T05:16:50.806Z,21.60
2023-03-17T05:19:23.328Z,24.40
2023-03-17T05:21:50.696Z,25.10
2023-03-17T05:24:38.172Z,31.80
2023-03-17T05:27:09.865Z,32.40
2023-03-17T05:29:38.297Z,27.90
2023-03-17T05:32:05.801Z,34.30
2023-03-17T05:34:33.665Z,91.10
2023-03-17T05:37:01.402Z,83.30
2023-03-17T05:39:32.989Z,75.20
2023-03-17T05:44:27.657Z,45.00
2023-03-17T05:49:31.087Z,28.10
2023-03-17T05:52:00.963Z,28.00
2023-03-17T05:54:28.257Z,21.70
2023-03-17T05:56:55.590Z,20.90
2023-03-17T05:59:23.146Z,20.40
2023-03-17T06:01:50.269Z,17.00
2023-03-17T06:04:17.453Z,19.40
2023-03-17T06:06:47.933Z,19.90
2023-03-17T06:09:16.395Z,19.00
2023-03-17T06:11:44.100Z,19.60
2023-03-17T06:14:17.325Z,17.80
2023-03-17T06:17:04.730Z,17.40
2023-03-17T06:19:31.684Z,16.30
2023-03-17T06:21:59.897Z,15.10
2023-03-17T06:24:27.112Z,20.20
2023-03-17T06:26:54.779Z,17.20
2023-03-17T06:29:22.724Z,18.70
2023-03-17T06:31:52.590Z,19.60
2023-03-17T06:34:23.117Z,16.80
2023-03-17T06:36:50.375Z,15.50
2023-03-17T06:39:21.140Z,18.90
2023-03-17T06:41:51.208Z,17.90
2023-03-17T06:44:21.485Z,17.70
2023-03-17T06:46:52.810Z,16.70
2023-03-17T06:49:20.394Z,16.80
2023-03-17T06:51:48.372Z,15.30
2023-03-17T06:54:18.224Z,16.20
2023-03-17T06:56:46.787Z,15.90
2023-03-17T06:59:14.478Z,14.10
2023-03-17T07:01:42.042Z,16.80
2023-03-17T07:04:09.807Z,17.30
2023-03-17T07:06:38.071Z,18.00
2023-03-17T07:09:05.942Z,17.60
2023-03-17T07:11:37.508Z,16.10
2023-03-17T07:14:07.968Z,15.20
2023-03-17T07:16:35.215Z,14.60
2023-03-17T07:19:19.265Z,13.80
2023-03-17T07:21:47.161Z,13.10
2023-03-17T07:24:14.746Z,14.30
2023-03-17T07:26:45.236Z,14.90
2023-03-17T07:29:20.967Z,14.50
2023-03-17T07:31:49.511Z,16.10
2023-03-17T07:34:22.444Z,16.60
2023-03-17T07:36:50.280Z,15.10
2023-03-17T07:39:20.801Z,16.00
2023-03-17T07:41:53.049Z,15.90
2023-03-17T07:44:24.808Z,17.20
2023-03-17T07:47:00.041Z,16.70
2023-03-17T07:49:40.447Z,15.10
2023-03-17T07:52:10.352Z,15.90
2023-03-17T07:54:42.202Z,21.90
2023-03-17T07:57:13.760Z,20.80
2023-03-17T08:02:14.922Z,15.40
2023-03-17T08:04:43.157Z,13.20
2023-03-17T08:07:10.540Z,12.40
2023-03-17T08:09:38.814Z,12.10
2023-03-17T08:12:06.832Z,11.50
2023-03-17T08:14:45.295Z,12.10
2023-03-17T08:17:13.776Z,12.90
2023-03-17T08:19:43.596Z,12.50
2023-03-17T08:22:13.296Z,11.90
2023-03-17T08:24:46.873Z,14.10
2023-03-17T08:27:17.316Z,10.40
2023-03-17T08:29:45.395Z,9.40
2023-03-17T08:32:13.437Z,10.40
2023-03-17T08:34:40.717Z,6.90
2023-03-17T08:37:11.313Z,10.10
2023-03-17T08:42:10.923Z,5.60
2023-03-17T08:44:43.995Z,6.10
2023-03-17T08:47:17.479Z,4.70
2023-03-17T08:49:46.619Z,3.60
2023-03-17T08:52:14.920Z,3.00
2023-03-17T08:54:42.453Z,3.20
2023-03-17T08:57:14.671Z,3.30
2023-03-17T08:59:49.790Z,2.80
2023-03-17T09:02:43.127Z,2.70
2023-03-17T09:05:45.168Z,3.60
2023-03-17T09:11:16.656Z,3.30
2023-03-17T09:13:46.823Z,3.20
2023-03-17T09:16:20.157Z,2.70
2023-03-17T09:18:47.425Z,3.00
2023-03-17T09:21:17.341Z,3.20
2023-03-17T09:23:47.280Z,2.90
2023-03-17T09:26:14.975Z,3.70
2023-03-17T09:28:42.863Z,3.10
2023-03-17T09:31:11.639Z,3.20
2023-03-17T09:33:44.389Z,3.20
2023-03-17T09:36:12.141Z,3.40
2023-03-17T09:38:48.766Z,3.50
2023-03-17T09:41:30.829Z,3.60
2023-03-17T09:44:36.267Z,4.00
2023-03-17T09:47:18.489Z,3.70
2023-03-17T09:49:52.453Z,3.60
2023-03-17T09:52:29.571Z,3.40
2023-03-17T09:55:00.154Z,3.80
2023-03-17T09:57:30.867Z,3.20
2023-03-17T10:00:11.633Z,3.00
2023-03-17T10:02:43.543Z,4.50
2023-03-17T10:05:20.666Z,3.60
2023-03-17T10:08:29.906Z,3.60
2023-03-17T10:11:13.401Z,3.30
2023-03-17T10:13:59.099Z,2.60
2023-03-17T10:16:48.590Z,3.30
2023-03-17T10:19:21.790Z,2.80
2023-03-17T10:22:05.568Z,2.90
2023-03-17T10:24:36.971Z,2.60
2023-03-17T10:29:37.302Z,2.60
2023-03-17T10:32:09.537Z,2.30
2023-03-17T10:34:47.131Z,2.70
2023-03-17T10:37:21.180Z,2.70
2023-03-17T10:39:59.932Z,5.00
2023-03-17T10:42:33.078Z,2.40
2023-03-17T10:45:28.096Z,3.00
2023-03-17T10:47:57.540Z,2.60
2023-03-17T10:50:32.169Z,12.20
2023-03-17T10:53:07.800Z,2.90
2023-03-17T10:55:42.656Z,2.40
2023-03-17T10:58:20.409Z,2.60
2023-03-17T11:01:07.970Z,2.40
2023-03-17T11:03:39.862Z,3.10
2023-03-17T11:06:19.208Z,2.50
2023-03-17T11:08:55.659Z,2.80
2023-03-17T11:11:31.992Z,2.60
2023-03-17T11:14:27.354Z,2.30
2023-03-17T11:17:04.183Z,2.40
2023-03-17T11:20:05.660Z,2.50
2023-03-17T11:22:40.311Z,2.20
2023-03-17T11:25:20.330Z,3.30
2023-03-17T11:28:11.980Z,2.60
2023-03-17T11:31:01.342Z,2.60
2023-03-17T11:33:43.843Z,2.50
2023-03-17T11:36:26.048Z,3.70
2023-03-17T11:39:04.651Z,2.40
2023-03-17T11:42:11.543Z,2.60
2023-03-17T11:44:52.418Z,2.80
2023-03-17T11:47:38.791Z,2.30
2023-03-17T11:50:20.760Z,2.40
2023-03-17T11:52:53.260Z,2.40
2023-03-17T11:55:39.760Z,2.70
2023-03-17T11:58:13.547Z,2.50
2023-03-17T12:00:53.968Z,2.30
2023-03-17T12:03:35.149Z,2.20
2023-03-17T12:06:05.538Z,2.10
2023-03-17T12:08:45.713Z,2.30
2023-03-17T12:11:36.773Z,2.20
2023-03-17T12:14:13.111Z,2.50
2023-03-17T12:17:01.911Z,2.80
2023-03-17T12:19:37.029Z,2.10
2023-03-17T12:22:13.450Z,2.40
2023-03-17T12:24:45.606Z,2.50
2023-03-17T12:27:30.429Z,2.10
2023-03-17T12:30:03.648Z,2.30
2023-03-17T12:32:44.440Z,2.90
2023-03-17T12:35:29.627Z,3.00
2023-03-17T12:38:02.853Z,2.60
2023-03-17T12:41:13.312Z,2.90
2023-03-17T12:44:04.093Z,2.10
2023-03-17T12:46:54.947Z,2.90
2023-03-17T12:49:42.407Z,2.50
2023-03-17T12:52:41.897Z,2.60
2023-03-17T12:55:13.151Z,2.60
2023-03-17T12:57:47.960Z,3.00
2023-03-17T13:00:18.511Z,14.80
2023-03-17T13:02:49.667Z,3.90
2023-03-17T13:05:18.727Z,2.70
2023-03-17T13:07:53.886Z,2.60
2023-03-17T13:10:44.305Z,3.10
2023-03-17T13:13:46.290Z,2.50
2023-03-17T13:16:32.331Z,2.50
2023-03-17T13:19:21.598Z,2.50
2023-03-17T13:21:58.944Z,2.30
2023-03-17T13:24:42.042Z,2.50
2023-03-17T13:27:34.321Z,2.50
2023-03-17T13:30:26.511Z,2.50
2023-03-17T13:32:57.501Z,3.20
2023-03-17T13:35:47.792Z,2.50
2023-03-17T13:38:41.789Z,2.60
2023-03-17T13:41:37.818Z,2.30
2023-03-17T13:44:15.456Z,2.10
2023-03-17T13:46:49.078Z,2.60
2023-03-17T13:49:24.222Z,2.40
2023-03-17T13:51:59.918Z,2.20
2023-03-17T13:54:30.813Z,2.40
2023-03-17T13:57:18.041Z,2.40
2023-03-17T13:59:51.152Z,2.40
2023-03-17T14:02:22.045Z,2.50
2023-03-17T14:04:55.014Z,2.70
2023-03-17T14:07:27.437Z,3.80
2023-03-17T14:10:02.745Z,3.70
2023-03-17T14:12:45.343Z,4.00
2023-03-17T14:15:35.071Z,2.80
2023-03-17T14:18:12.728Z,2.50
2023-03-17T14:20:59.642Z,2.60
2023-03-17T14:23:27.257Z,2.20
2023-03-17T14:26:00.868Z,2.50
2023-03-17T14:28:32.571Z,2.70
2023-03-17T14:31:04.791Z,2.60
2023-03-17T14:33:34.585Z,3.60
2023-03-17T14:36:03.023Z,2.60
2023-03-17T14:38:34.714Z,3.40
2023-03-17T14:41:15.636Z,3.40
2023-03-17T14:43:49.068Z,5.10
2023-03-17T14:46:48.856Z,4.40
2023-03-17T14:49:22.978Z,3.40
2023-03-17T14:51:58.353Z,3.00
2023-03-17T14:54:32.901Z,2.60
2023-03-17T14:57:14.711Z,2.70
2023-03-17T14:59:42.325Z,3.10
2023-03-17T15:02:34.948Z,3.10
2023-03-17T15:05:24.713Z,2.90
2023-03-17T15:07:59.828Z,2.60
2023-03-17T15:10:34.291Z,2.60
2023-03-17T15:13:10.023Z,2.80
2023-03-17T15:15:38.548Z,2.40
2023-03-17T15:18:15.335Z,4.50
2023-03-17T15:20:44.091Z,4.80
2023-03-17T15:23:18.298Z,4.40
2023-03-17T15:25:48.314Z,4.90
2023-03-17T15:28:17.160Z,5.90
2023-03-17T15:30:48.469Z,3.70
2023-03-17T15:35:47.960Z,3.00
2023-03-17T15:38:15.745Z,2.80
2023-03-17T15:40:43.013Z,2.60
2023-03-17T15:43:17.376Z,3.20
2023-03-17T15:45:47.989Z,2.80
2023-03-17T15:48:25.498Z,3.10
2023-03-17T15:50:53.199Z,3.00
2023-03-17T15:53:26.385Z,3.00
2023-03-17T15:55:53.575Z,3.30
2023-03-17T15:58:21.153Z,2.90
2023-03-17T16:00:53.343Z,5.20
2023-03-17T16:03:30.266Z,4.00
2023-03-17T16:05:58.506Z,3.70
2023-03-17T16:08:25.988Z,5.10
2023-03-17T16:10:53.485Z,3.40
2023-03-17T16:13:21.022Z,3.30
2023-03-17T16:15:59.018Z,4.10
2023-03-17T16:18:37.831Z,3.80
2023-03-17T16:21:09.274Z,4.10
2023-03-17T16:23:38.999Z,4.50
2023-03-17T16:26:16.443Z,3.70
2023-03-17T16:28:49.648Z,4.10
2023-03-17T16:31:48.842Z,4.10
2023-03-17T16:34:28.928Z,4.10
2023-03-17T16:36:56.679Z,4.50
2023-03-17T16:39:43.371Z,5.70
2023-03-17T16:42:23.542Z,7.00
2023-03-17T16:44:50.908Z,6.00
2023-03-17T16:47:19.480Z,5.80
2023-03-17T16:49:47.401Z,6.30
2023-03-17T16:52:14.570Z,5.70
2023-03-17T16:54:44.791Z,4.90
2023-03-17T16:57:14.508Z,4.10
2023-03-17T16:59:41.580Z,4.60
2023-03-17T17:02:15.991Z,4.90
2023-03-17T17:04:43.385Z,35.90
2023-03-17T17:07:11.352Z,51.00
2023-03-17T17:09:42.161Z,15.40
2023-03-17T17:12:11.219Z,8.20
2023-03-17T17:14:40.336Z,10.70
2023-03-17T17:17:07.603Z,6.50
2023-03-17T17:19:36.429Z,10.80
2023-03-17T17:22:05.652Z,62.00
2023-03-17T17:24:33.067Z,50.60
2023-03-17T17:27:01.462Z,42.60
2023-03-17T17:29:32.238Z,43.10
2023-03-17T17:32:01.997Z,41.40
2023-03-17T17:34:29.533Z,112.70
2023-03-17T17:37:09.042Z,71.10
2023-03-17T17:42:04.407Z,92.50
2023-03-17T17:44:40.871Z,185.30
2023-03-17T17:47:14.509Z,141.10
2023-03-17T17:49:46.930Z,264.30
2023-03-17T17:52:18.438Z,348.40
2023-03-17T17:54:51.352Z,294.90
2023-03-17T17:57:20.330Z,280.10
2023-03-17T17:59:47.582Z,192.70
2023-03-17T18:02:14.914Z,152.50
2023-03-17T18:04:43.667Z,99.40
2023-03-17T18:09:41.216Z,84.60
2023-03-17T18:12:09.032Z,89.20
2023-03-17T18:14:36.387Z,115.40
2023-03-17T18:17:03.415Z,91.00
2023-03-17T18:19:32.157Z,110.00
2023-03-17T18:21:59.482Z,101.60
2023-03-17T18:24:39.456Z,113.10
2023-03-17T18:27:07.794Z,133.60
2023-03-17T18:29:34.999Z,137.00
2023-03-17T18:32:02.789Z,140.70
2023-03-17T18:34:35.172Z,145.20
2023-03-17T18:37:07.679Z,134.20
2023-03-17T18:39:36.038Z,119.50
2023-03-17T18:42:03.443Z,120.40
2023-03-17T18:44:30.875Z,107.90
2023-03-17T18:46:58.177Z,115.00
2023-03-17T18:49:28.242Z,118.60
2023-03-17T18:51:56.916Z,113.90
2023-03-17T18:54:24.042Z,111.90
2023-03-17T18:56:56.483Z,99.80
2023-03-17T18:59:23.979Z,85.30
2023-03-17T19:01:52.145Z,58.90
2023-03-17T19:04:19.531Z,72.00
2023-03-17T19:06:46.677Z,77.50
2023-03-17T19:09:14.049Z,75.40
2023-03-17T19:11:42.284Z,57.60
2023-03-17T19:14:16.728Z,59.60
2023-03-17T19:16:49.272Z,64.60
2023-03-17T19:19:16.343Z,70.70
2023-03-17T19:21:43.472Z,77.20
2023-03-17T19:24:14.274Z,75.10
2023-03-17T19:26:41.888Z,182.10
2023-03-17T19:29:12.144Z,248.20
2023-03-17T19:31:42.591Z,292.40
2023-03-17T19:34:13.201Z,266.40
2023-03-17T19:36:41.625Z,94.00
2023-03-17T19:39:13.809Z,66.00
2023-03-17T19:41:42.582Z,83.80
2023-03-17T19:44:09.695Z,51.40
2023-03-17T19:46:39.578Z,66.30
2023-03-17T19:49:06.697Z,68.40
2023-03-17T19:51:34.044Z,81.80
2023-03-17T19:54:05.343Z,60.60
2023-03-17T19:56:32.668Z,54.80
2023-03-17T19:59:00.119Z,66.30
2023-03-17T20:01:29.172Z,57.50
2023-03-17T20:03:56.572Z,50.80
2023-03-17T20:06:27.212Z,52.40
2023-03-17T20:08:55.865Z,50.20
2023-03-17T20:11:22.964Z,55.60
2023-03-17T20:13:49.831Z,64.40
2023-03-17T20:16:20.486Z,138.90
2023-03-17T20:18:47.863Z,83.10
2023-03-17T20:21:17.063Z,68.30
2023-03-17T20:23:44.888Z,66.50
2023-03-17T20:26:12.870Z,58.40
2023-03-17T20:28:40.357Z,47.10
2023-03-17T20:31:08.248Z,47.70
2023-03-17T20:33:36.057Z,47.90
2023-03-17T20:36:04.864Z,42.20
2023-03-17T20:38:39.129Z,78.60
2023-03-17T20:41:12.918Z,138.70
2023-03-17T20:43:40.422Z,152.70
2023-03-17T20:46:20.366Z,107.00
2023-03-17T20:48:48.351Z,82.40
2023-03-17T20:51:16.836Z,68.20
2023-03-17T20:53:49.236Z,42.50
2023-03-17T20:56:18.936Z,31.70
2023-03-17T20:58:48.502Z,27.30
2023-03-17T21:01:18.225Z,25.60
2023-03-17T21:06:14.394Z,60.80
2023-03-17T21:08:42.569Z,18.50
2023-03-17T21:11:17.800Z,18.50
2023-03-17T21:13:45.365Z,36.70
2023-03-17T21:16:24.340Z,27.20
2023-03-17T21:18:55.888Z,28.40
2023-03-17T21:21:24.814Z,39.90
2023-03-17T21:23:52.088Z,53.50
2023-03-17T21:26:23.123Z,78.20
2023-03-17T21:28:50.569Z,90.60
2023-03-17T21:33:53.321Z,70.40
2023-03-17T21:36:21.374Z,24.40
2023-03-17T21:38:48.491Z,79.20
2023-03-17T21:41:28.899Z,77.10
2023-03-17T21:43:58.979Z,9.70
2023-03-17T21:46:26.635Z,42.10
2023-03-17T21:48:57.089Z,47.10
2023-03-17T21:51:24.928Z,55.90
2023-03-17T21:53:53.098Z,50.30
2023-03-17T21:56:20.589Z,50.80
2023-03-17T21:58:49.096Z,53.30
2023-03-17T22:01:18.069Z,62.80
2023-03-17T22:03:48.319Z,62.20
2023-03-17T22:06:16.328Z,53.20
2023-03-17T22:11:24.096Z,53.50
2023-03-17T22:13:53.640Z,8.40
2023-03-17T22:16:25.543Z,29.70
2023-03-17T22:18:52.843Z,36.70
2023-03-17T22:21:21.546Z,31.70
2023-03-17T22:23:50.427Z,37.40
2023-03-17T22:26:20.306Z,36.40
2023-03-17T22:28:50.712Z,27.00
2023-03-17T22:31:21.367Z,27.10
2023-03-17T22:33:50.203Z,26.10
2023-03-17T22:36:20.315Z,7.60
2023-03-17T22:38:47.943Z,29.60
2023-03-17T22:41:21.619Z,27.10
2023-03-17T22:43:50.271Z,62.20
2023-03-17T22:46:20.580Z,50.10
2023-03-17T22:51:20.928Z,20.60
2023-03-17T22:53:55.320Z,17.60
2023-03-17T22:56:23.631Z,46.40
2023-03-17T22:58:51.344Z,10.90
2023-03-17T23:01:18.965Z,37.30
2023-03-17T23:03:46.391Z,30.00
2023-03-17T23:06:14.560Z,7.60
2023-03-17T23:08:48.404Z,38.00
2023-03-17T23:11:24.417Z,58.90
2023-03-17T23:14:04.595Z,7.50
2023-03-17T23:16:32.316Z,43.40
2023-03-17T23:18:59.935Z,46.30
2023-03-17T23:21:32.577Z,58.90
2023-03-17T23:24:00.682Z,58.30
2023-03-17T23:26:36.127Z,17.30
2023-03-17T23:29:05.181Z,68.40
2023-03-17T23:31:34.284Z,26.10
2023-03-17T23:34:01.861Z,16.60
2023-03-17T23:36:32.343Z,80.60
2023-03-17T23:39:00.662Z,22.10
2023-03-17T23:41:28.013Z,67.10
2023-03-17T23:43:55.476Z,55.00
2023-03-17T23:46:23.685Z,54.30
2023-03-17T23:48:50.837Z,59.80
2023-03-17T23:51:53.150Z,19.60
2023-03-17T23:55:04.456Z,16.70
2023-03-17T23:57:52.051Z,34.40
